sensor_id;sensor_type;location;lat;lon;timestamp;temperature;humidity
44863;DHT22;30597;49.628;10.850;2023-07-31T00:00:39;24.80;55.80
44863;DHT22;30597;49.628;10.850;2023-07-31T00:03:05;24.80;55.80
44863;DHT22;30597;49.628;10.850;2023-07-31T00:05:30;24.80;55.90
44863;DHT22;30597;49.628;10.850;2023-07-31T00:07:56;24.70;55.90
44863;DHT22;30597;49.628;10.850;2023-07-31T00:10:22;24.80;56.00
44863;DHT22;30597;49.628;10.850;2023-07-31T00:12:47;24.90;56.00
44863;DHT22;30597;49.628;10.850;2023-07-31T00:15:14;24.90;56.10
44863;DHT22;30597;49.628;10.850;2023-07-31T00:17:40;24.80;56.20
44863;DHT22;30597;49.628;10.850;2023-07-31T00:20:06;24.70;56.10
44863;DHT22;30597;49.628;10.850;2023-07-31T00:22:31;24.70;56.00
44863;DHT22;30597;49.628;10.850;2023-07-31T00:24:57;24.80;56.30
44863;DHT22;30597;49.628;10.850;2023-07-31T00:27:23;24.70;56.30
44863;DHT22;30597;49.628;10.850;2023-07-31T00:29:48;24.70;56.30
44863;DHT22;30597;49.628;10.850;2023-07-31T00:32:14;24.70;56.50
44863;DHT22;30597;49.628;10.850;2023-07-31T00:34:39;24.60;56.40
44863;DHT22;30597;49.628;10.850;2023-07-31T00:37:05;24.70;56.50
44863;DHT22;30597;49.628;10.850;2023-07-31T00:39:31;24.80;56.70
44863;DHT22;30597;49.628;10.850;2023-07-31T00:41:57;24.60;56.50
44863;DHT22;30597;49.628;10.850;2023-07-31T00:44:22;24.70;56.60
44863;DHT22;30597;49.628;10.850;2023-07-31T00:46:48;24.60;56.50
44863;DHT22;30597;49.628;10.850;2023-07-31T00:49:15;24.70;56.60
44863;DHT22;30597;49.628;10.850;2023-07-31T00:51:41;24.60;56.70
44863;DHT22;30597;49.628;10.850;2023-07-31T00:54:06;24.60;56.50
44863;DHT22;30597;49.628;10.850;2023-07-31T00:56:32;24.70;57.00
44863;DHT22;30597;49.628;10.850;2023-07-31T00:58:58;24.60;56.70
44863;DHT22;30597;49.628;10.850;2023-07-31T01:01:24;24.70;57.60
44863;DHT22;30597;49.628;10.850;2023-07-31T01:03:50;24.70;56.90
44863;DHT22;30597;49.628;10.850;2023-07-31T01:06:39;24.60;56.90
44863;DHT22;30597;49.628;10.850;2023-07-31T01:11:34;24.60;57.00
44863;DHT22;30597;49.628;10.850;2023-07-31T01:14:00;24.60;57.00
44863;DHT22;30597;49.628;10.850;2023-07-31T01:16:26;24.60;56.90
44863;DHT22;30597;49.628;10.850;2023-07-31T01:18:52;24.50;56.90
44863;DHT22;30597;49.628;10.850;2023-07-31T01:21:35;24.60;56.80
44863;DHT22;30597;49.628;10.850;2023-07-31T01:24:20;24.60;57.60
44863;DHT22;30597;49.628;10.850;2023-07-31T01:26:55;24.50;57.20
44863;DHT22;30597;49.628;10.850;2023-07-31T01:29:56;24.50;57.10
44863;DHT22;30597;49.628;10.850;2023-07-31T01:32:23;24.50;56.80
44863;DHT22;30597;49.628;10.850;2023-07-31T01:34:49;24.60;56.90
44863;DHT22;30597;49.628;10.850;2023-07-31T01:37:16;24.50;56.80
44863;DHT22;30597;49.628;10.850;2023-07-31T01:39:41;24.60;56.80
44863;DHT22;30597;49.628;10.850;2023-07-31T01:42:07;24.60;57.00
44863;DHT22;30597;49.628;10.850;2023-07-31T01:44:33;24.60;57.40
44863;DHT22;30597;49.628;10.850;2023-07-31T01:46:58;24.50;57.10
44863;DHT22;30597;49.628;10.850;2023-07-31T01:49:25;24.50;57.30
44863;DHT22;30597;49.628;10.850;2023-07-31T01:51:51;24.50;57.10
44863;DHT22;30597;49.628;10.850;2023-07-31T01:54:18;24.60;57.30
44863;DHT22;30597;49.628;10.850;2023-07-31T01:56:44;24.50;57.30
44863;DHT22;30597;49.628;10.850;2023-07-31T01:59:09;24.60;57.50
44863;DHT22;30597;49.628;10.850;2023-07-31T02:01:35;24.40;57.20
44863;DHT22;30597;49.628;10.850;2023-07-31T02:04:00;24.60;57.70
44863;DHT22;30597;49.628;10.850;2023-07-31T02:06:26;24.60;57.60
44863;DHT22;30597;49.628;10.850;2023-07-31T02:08:52;24.50;57.50
44863;DHT22;30597;49.628;10.850;2023-07-31T02:11:18;24.50;57.60
44863;DHT22;30597;49.628;10.850;2023-07-31T02:13:43;24.50;57.60
44863;DHT22;30597;49.628;10.850;2023-07-31T02:16:09;24.50;57.70
44863;DHT22;30597;49.628;10.850;2023-07-31T02:18:34;24.40;57.40
44863;DHT22;30597;49.628;10.850;2023-07-31T02:21:00;24.40;57.50
44863;DHT22;30597;49.628;10.850;2023-07-31T02:23:25;24.40;57.50
44863;DHT22;30597;49.628;10.850;2023-07-31T02:25:51;24.40;57.80
44863;DHT22;30597;49.628;10.850;2023-07-31T02:28:16;24.40;57.80
44863;DHT22;30597;49.628;10.850;2023-07-31T02:30:44;24.40;58.00
44863;DHT22;30597;49.628;10.850;2023-07-31T02:33:11;24.50;58.00
44863;DHT22;30597;49.628;10.850;2023-07-31T02:35:37;24.50;57.80
44863;DHT22;30597;49.628;10.850;2023-07-31T02:38:02;24.50;57.70
44863;DHT22;30597;49.628;10.850;2023-07-31T02:40:28;24.40;57.60
44863;DHT22;30597;49.628;10.850;2023-07-31T02:42:53;24.40;57.50
44863;DHT22;30597;49.628;10.850;2023-07-31T02:45:19;24.40;57.80
44863;DHT22;30597;49.628;10.850;2023-07-31T02:47:44;24.40;57.80
44863;DHT22;30597;49.628;10.850;2023-07-31T02:50:10;24.40;57.60
44863;DHT22;30597;49.628;10.850;2023-07-31T02:52:35;24.50;58.00
44863;DHT22;30597;49.628;10.850;2023-07-31T02:55:01;24.40;57.70
44863;DHT22;30597;49.628;10.850;2023-07-31T02:57:26;24.30;57.60
44863;DHT22;30597;49.628;10.850;2023-07-31T02:59:52;24.50;57.70
44863;DHT22;30597;49.628;10.850;2023-07-31T03:02:18;24.30;57.50
44863;DHT22;30597;49.628;10.850;2023-07-31T03:04:43;24.40;57.80
44863;DHT22;30597;49.628;10.850;2023-07-31T03:07:09;24.40;58.00
44863;DHT22;30597;49.628;10.850;2023-07-31T03:09:34;24.30;57.80
44863;DHT22;30597;49.628;10.850;2023-07-31T03:12:00;24.40;57.70
44863;DHT22;30597;49.628;10.850;2023-07-31T03:14:25;24.40;57.80
44863;DHT22;30597;49.628;10.850;2023-07-31T03:16:54;24.40;58.10
44863;DHT22;30597;49.628;10.850;2023-07-31T03:19:19;24.30;57.90
44863;DHT22;30597;49.628;10.850;2023-07-31T03:21:45;24.30;57.90
44863;DHT22;30597;49.628;10.850;2023-07-31T03:24:10;24.40;58.10
44863;DHT22;30597;49.628;10.850;2023-07-31T03:26:37;24.30;57.90
44863;DHT22;30597;49.628;10.850;2023-07-31T03:29:03;24.30;57.80
44863;DHT22;30597;49.628;10.850;2023-07-31T03:31:29;24.30;58.10
44863;DHT22;30597;49.628;10.850;2023-07-31T03:33:55;24.30;58.00
44863;DHT22;30597;49.628;10.850;2023-07-31T03:36:20;24.30;57.80
44863;DHT22;30597;49.628;10.850;2023-07-31T03:38:46;24.30;57.90
44863;DHT22;30597;49.628;10.850;2023-07-31T03:41:12;24.30;57.80
44863;DHT22;30597;49.628;10.850;2023-07-31T03:43:37;24.30;57.90
44863;DHT22;30597;49.628;10.850;2023-07-31T03:46:03;24.20;57.80
44863;DHT22;30597;49.628;10.850;2023-07-31T03:48:29;24.30;57.80
44863;DHT22;30597;49.628;10.850;2023-07-31T03:50:54;24.30;57.80
44863;DHT22;30597;49.628;10.850;2023-07-31T03:53:20;24.20;57.80
44863;DHT22;30597;49.628;10.850;2023-07-31T03:55:46;24.30;57.90
44863;DHT22;30597;49.628;10.850;2023-07-31T03:58:12;24.30;58.00
44863;DHT22;30597;49.628;10.850;2023-07-31T04:00:37;24.40;57.90
44863;DHT22;30597;49.628;10.850;2023-07-31T04:03:03;24.30;57.90
44863;DHT22;30597;49.628;10.850;2023-07-31T04:05:31;24.20;57.70
44863;DHT22;30597;49.628;10.850;2023-07-31T04:07:56;24.40;58.20
44863;DHT22;30597;49.628;10.850;2023-07-31T04:10:22;24.30;58.00
44863;DHT22;30597;49.628;10.850;2023-07-31T04:12:48;24.30;58.10
44863;DHT22;30597;49.628;10.850;2023-07-31T04:15:13;24.20;57.90
44863;DHT22;30597;49.628;10.850;2023-07-31T04:17:39;24.20;58.00
44863;DHT22;30597;49.628;10.850;2023-07-31T04:20:05;24.30;58.20
44863;DHT22;30597;49.628;10.850;2023-07-31T04:22:31;24.30;58.00
44863;DHT22;30597;49.628;10.850;2023-07-31T04:24:56;24.40;58.00
44863;DHT22;30597;49.628;10.850;2023-07-31T04:27:22;24.20;58.00
44863;DHT22;30597;49.628;10.850;2023-07-31T04:29:47;24.20;58.00
44863;DHT22;30597;49.628;10.850;2023-07-31T04:32:13;24.20;57.80
44863;DHT22;30597;49.628;10.850;2023-07-31T04:34:42;24.20;58.00
44863;DHT22;30597;49.628;10.850;2023-07-31T04:37:07;24.20;58.00
44863;DHT22;30597;49.628;10.850;2023-07-31T04:39:33;24.20;58.00
44863;DHT22;30597;49.628;10.850;2023-07-31T04:41:58;24.20;58.20
44863;DHT22;30597;49.628;10.850;2023-07-31T04:44:24;24.20;58.00
44863;DHT22;30597;49.628;10.850;2023-07-31T04:46:49;24.20;58.10
44863;DHT22;30597;49.628;10.850;2023-07-31T04:49:15;24.20;58.00
44863;DHT22;30597;49.628;10.850;2023-07-31T04:51:41;24.20;58.00
44863;DHT22;30597;49.628;10.850;2023-07-31T04:54:06;24.30;58.10
44863;DHT22;30597;49.628;10.850;2023-07-31T04:56:33;24.30;58.50
44863;DHT22;30597;49.628;10.850;2023-07-31T04:58:59;24.20;58.10
44863;DHT22;30597;49.628;10.850;2023-07-31T05:01:25;24.30;58.20
44863;DHT22;30597;49.628;10.850;2023-07-31T05:03:50;24.10;58.00
44863;DHT22;30597;49.628;10.850;2023-07-31T05:06:16;24.30;58.00
44863;DHT22;30597;49.628;10.850;2023-07-31T05:08:42;24.30;58.30
44863;DHT22;30597;49.628;10.850;2023-07-31T05:11:07;24.30;58.20
44863;DHT22;30597;49.628;10.850;2023-07-31T05:13:33;24.30;58.20
44863;DHT22;30597;49.628;10.850;2023-07-31T05:15:58;24.30;57.70
44863;DHT22;30597;49.628;10.850;2023-07-31T05:18:24;24.30;57.70
44863;DHT22;30597;49.628;10.850;2023-07-31T05:20:49;24.30;57.80
44863;DHT22;30597;49.628;10.850;2023-07-31T05:23:15;24.40;57.50
44863;DHT22;30597;49.628;10.850;2023-07-31T05:25:40;24.40;57.50
44863;DHT22;30597;49.628;10.850;2023-07-31T05:28:06;24.40;57.40
44863;DHT22;30597;49.628;10.850;2023-07-31T05:30:31;24.40;57.50
44863;DHT22;30597;49.628;10.850;2023-07-31T05:32:57;24.40;57.50
44863;DHT22;30597;49.628;10.850;2023-07-31T05:35:22;24.40;57.60
44863;DHT22;30597;49.628;10.850;2023-07-31T05:37:48;24.50;57.30
44863;DHT22;30597;49.628;10.850;2023-07-31T05:40:14;24.40;57.00
44863;DHT22;30597;49.628;10.850;2023-07-31T05:42:39;24.40;56.80
44863;DHT22;30597;49.628;10.850;2023-07-31T05:45:06;24.50;56.70
44863;DHT22;30597;49.628;10.850;2023-07-31T05:47:32;24.40;56.30
44863;DHT22;30597;49.628;10.850;2023-07-31T05:49:57;24.50;56.10
44863;DHT22;30597;49.628;10.850;2023-07-31T05:52:23;24.50;56.10
44863;DHT22;30597;49.628;10.850;2023-07-31T05:54:48;24.40;56.10
44863;DHT22;30597;49.628;10.850;2023-07-31T05:57:14;24.40;56.20
44863;DHT22;30597;49.628;10.850;2023-07-31T05:59:39;24.50;56.00
44863;DHT22;30597;49.628;10.850;2023-07-31T06:02:06;24.50;56.10
44863;DHT22;30597;49.628;10.850;2023-07-31T06:04:31;24.40;55.70
44863;DHT22;30597;49.628;10.850;2023-07-31T06:06:57;24.50;56.10
44863;DHT22;30597;49.628;10.850;2023-07-31T06:09:22;24.50;56.10
44863;DHT22;30597;49.628;10.850;2023-07-31T06:11:48;24.70;55.90
44863;DHT22;30597;49.628;10.850;2023-07-31T06:14:14;24.70;55.90
44863;DHT22;30597;49.628;10.850;2023-07-31T06:16:40;24.50;55.70
44863;DHT22;30597;49.628;10.850;2023-07-31T06:19:05;24.60;55.70
44863;DHT22;30597;49.628;10.850;2023-07-31T06:21:32;24.70;55.80
44863;DHT22;30597;49.628;10.850;2023-07-31T06:23:58;24.60;55.70
44863;DHT22;30597;49.628;10.850;2023-07-31T06:26:24;24.60;56.00
44863;DHT22;30597;49.628;10.850;2023-07-31T06:28:49;24.60;55.40
44863;DHT22;30597;49.628;10.850;2023-07-31T06:31:15;24.80;55.70
44863;DHT22;30597;49.628;10.850;2023-07-31T06:33:40;24.60;55.70
44863;DHT22;30597;49.628;10.850;2023-07-31T06:36:06;24.60;55.60
44863;DHT22;30597;49.628;10.850;2023-07-31T06:38:31;24.50;55.60
44863;DHT22;30597;49.628;10.850;2023-07-31T06:40:57;24.60;55.70
44863;DHT22;30597;49.628;10.850;2023-07-31T06:43:22;24.60;55.80
44863;DHT22;30597;49.628;10.850;2023-07-31T06:45:48;24.60;55.70
44863;DHT22;30597;49.628;10.850;2023-07-31T06:48:16;24.60;55.70
44863;DHT22;30597;49.628;10.850;2023-07-31T06:50:42;24.70;55.60
44863;DHT22;30597;49.628;10.850;2023-07-31T06:53:07;24.70;55.60
44863;DHT22;30597;49.628;10.850;2023-07-31T06:55:33;24.70;55.40
44863;DHT22;30597;49.628;10.850;2023-07-31T06:57:58;24.70;55.50
44863;DHT22;30597;49.628;10.850;2023-07-31T07:00:24;24.80;55.50
44863;DHT22;30597;49.628;10.850;2023-07-31T07:02:50;24.80;55.40
44863;DHT22;30597;49.628;10.850;2023-07-31T07:05:19;24.60;55.20
44863;DHT22;30597;49.628;10.850;2023-07-31T07:07:45;24.60;55.00
44863;DHT22;30597;49.628;10.850;2023-07-31T07:10:10;24.70;55.00
44863;DHT22;30597;49.628;10.850;2023-07-31T07:12:36;24.70;55.30
44863;DHT22;30597;49.628;10.850;2023-07-31T07:15:02;24.70;55.10
44863;DHT22;30597;49.628;10.850;2023-07-31T07:17:29;24.60;55.20
44863;DHT22;30597;49.628;10.850;2023-07-31T07:19:57;24.70;55.20
44863;DHT22;30597;49.628;10.850;2023-07-31T07:22:23;24.60;55.00
44863;DHT22;30597;49.628;10.850;2023-07-31T07:24:49;24.60;55.00
44863;DHT22;30597;49.628;10.850;2023-07-31T07:27:15;24.60;55.10
44863;DHT22;30597;49.628;10.850;2023-07-31T07:29:40;24.70;55.00
44863;DHT22;30597;49.628;10.850;2023-07-31T07:32:06;24.60;55.00
44863;DHT22;30597;49.628;10.850;2023-07-31T07:34:32;24.60;55.10
44863;DHT22;30597;49.628;10.850;2023-07-31T07:36:57;24.60;55.00
44863;DHT22;30597;49.628;10.850;2023-07-31T07:39:23;24.60;55.60
44863;DHT22;30597;49.628;10.850;2023-07-31T07:41:48;24.60;54.80
44863;DHT22;30597;49.628;10.850;2023-07-31T07:44:14;24.50;55.10
44863;DHT22;30597;49.628;10.850;2023-07-31T07:46:40;24.60;55.10
44863;DHT22;30597;49.628;10.850;2023-07-31T07:49:06;24.60;55.10
44863;DHT22;30597;49.628;10.850;2023-07-31T07:51:32;24.70;55.30
44863;DHT22;30597;49.628;10.850;2023-07-31T07:53:58;24.80;55.10
44863;DHT22;30597;49.628;10.850;2023-07-31T07:56:26;24.80;55.00
44863;DHT22;30597;49.628;10.850;2023-07-31T07:58:52;24.70;55.10
44863;DHT22;30597;49.628;10.850;2023-07-31T08:01:18;24.80;55.00
44863;DHT22;30597;49.628;10.850;2023-07-31T08:03:43;24.90;55.00
44863;DHT22;30597;49.628;10.850;2023-07-31T08:06:09;24.80;55.00
44863;DHT22;30597;49.628;10.850;2023-07-31T08:08:35;24.80;54.50
44863;DHT22;30597;49.628;10.850;2023-07-31T08:11:01;24.80;54.50
44863;DHT22;30597;49.628;10.850;2023-07-31T08:13:27;24.80;54.60
44863;DHT22;30597;49.628;10.850;2023-07-31T08:15:53;24.90;54.60
44863;DHT22;30597;49.628;10.850;2023-07-31T08:18:18;24.70;54.70
44863;DHT22;30597;49.628;10.850;2023-07-31T08:20:44;24.80;55.30
44863;DHT22;30597;49.628;10.850;2023-07-31T08:23:10;24.90;55.20
44863;DHT22;30597;49.628;10.850;2023-07-31T08:25:36;24.80;54.40
44863;DHT22;30597;49.628;10.850;2023-07-31T08:28:03;24.80;54.10
44863;DHT22;30597;49.628;10.850;2023-07-31T08:30:28;24.80;54.50
44863;DHT22;30597;49.628;10.850;2023-07-31T08:32:54;24.70;54.10
44863;DHT22;30597;49.628;10.850;2023-07-31T08:35:19;24.70;54.20
44863;DHT22;30597;49.628;10.850;2023-07-31T08:37:45;24.90;54.30
44863;DHT22;30597;49.628;10.850;2023-07-31T08:40:11;24.90;54.20
44863;DHT22;30597;49.628;10.850;2023-07-31T08:43:03;24.80;53.90
44863;DHT22;30597;49.628;10.850;2023-07-31T08:45:29;24.70;53.90
44863;DHT22;30597;49.628;10.850;2023-07-31T08:47:56;24.70;53.80
44863;DHT22;30597;49.628;10.850;2023-07-31T08:50:23;24.70;54.00
44863;DHT22;30597;49.628;10.850;2023-07-31T08:52:50;24.70;53.80
44863;DHT22;30597;49.628;10.850;2023-07-31T08:55:16;24.80;54.00
44863;DHT22;30597;49.628;10.850;2023-07-31T08:57:42;24.70;53.60
44863;DHT22;30597;49.628;10.850;2023-07-31T09:00:10;24.70;53.60
44863;DHT22;30597;49.628;10.850;2023-07-31T09:03:02;24.70;53.60
44863;DHT22;30597;49.628;10.850;2023-07-31T09:05:30;24.80;53.90
44863;DHT22;30597;49.628;10.850;2023-07-31T09:07:56;24.70;53.70
44863;DHT22;30597;49.628;10.850;2023-07-31T09:10:23;24.70;53.70
44863;DHT22;30597;49.628;10.850;2023-07-31T09:12:51;24.70;53.80
44863;DHT22;30597;49.628;10.850;2023-07-31T09:15:17;24.70;53.40
44863;DHT22;30597;49.628;10.850;2023-07-31T09:17:43;24.70;53.50
44863;DHT22;30597;49.628;10.850;2023-07-31T09:20:16;24.70;53.60
44863;DHT22;30597;49.628;10.850;2023-07-31T09:22:44;24.70;53.70
44863;DHT22;30597;49.628;10.850;2023-07-31T09:25:24;24.70;53.50
44863;DHT22;30597;49.628;10.850;2023-07-31T09:30:20;24.70;53.60
44863;DHT22;30597;49.628;10.850;2023-07-31T09:32:48;24.90;53.90
44863;DHT22;30597;49.628;10.850;2023-07-31T09:37:48;24.70;53.50
44863;DHT22;30597;49.628;10.850;2023-07-31T09:40:25;24.70;53.60
44863;DHT22;30597;49.628;10.850;2023-07-31T09:42:51;24.80;53.60
44863;DHT22;30597;49.628;10.850;2023-07-31T09:45:18;24.70;53.40
44863;DHT22;30597;49.628;10.850;2023-07-31T09:47:47;24.70;53.40
44863;DHT22;30597;49.628;10.850;2023-07-31T09:50:16;24.70;53.40
44863;DHT22;30597;49.628;10.850;2023-07-31T09:52:42;24.70;53.40
44863;DHT22;30597;49.628;10.850;2023-07-31T09:55:11;24.70;53.30
44863;DHT22;30597;49.628;10.850;2023-07-31T09:57:41;24.70;53.30
44863;DHT22;30597;49.628;10.850;2023-07-31T10:00:09;24.80;53.40
44863;DHT22;30597;49.628;10.850;2023-07-31T10:02:36;24.70;53.30
44863;DHT22;30597;49.628;10.850;2023-07-31T10:05:03;24.70;53.40
44863;DHT22;30597;49.628;10.850;2023-07-31T10:07:30;24.70;53.40
44863;DHT22;30597;49.628;10.850;2023-07-31T10:10:00;24.70;53.30
44863;DHT22;30597;49.628;10.850;2023-07-31T10:12:27;24.70;53.30
44863;DHT22;30597;49.628;10.850;2023-07-31T10:14:56;24.80;53.30
44863;DHT22;30597;49.628;10.850;2023-07-31T10:17:23;24.60;53.20
44863;DHT22;30597;49.628;10.850;2023-07-31T10:19:49;24.60;53.40
44863;DHT22;30597;49.628;10.850;2023-07-31T10:22:15;24.60;53.40
44863;DHT22;30597;49.628;10.850;2023-07-31T10:24:45;24.70;53.40
44863;DHT22;30597;49.628;10.850;2023-07-31T10:27:11;24.60;53.50
44863;DHT22;30597;49.628;10.850;2023-07-31T10:29:38;24.60;53.50
44863;DHT22;30597;49.628;10.850;2023-07-31T10:32:06;24.70;53.50
44863;DHT22;30597;49.628;10.850;2023-07-31T10:34:35;24.70;53.50
44863;DHT22;30597;49.628;10.850;2023-07-31T10:37:24;24.60;53.40
44863;DHT22;30597;49.628;10.850;2023-07-31T10:39:57;24.70;53.50
44863;DHT22;30597;49.628;10.850;2023-07-31T10:44:58;24.70;53.40
44863;DHT22;30597;49.628;10.850;2023-07-31T10:47:24;24.70;53.30
44863;DHT22;30597;49.628;10.850;2023-07-31T10:49:49;24.70;53.20
44863;DHT22;30597;49.628;10.850;2023-07-31T10:52:20;24.60;53.00
44863;DHT22;30597;49.628;10.850;2023-07-31T10:54:49;24.70;53.20
44863;DHT22;30597;49.628;10.850;2023-07-31T10:57:19;24.70;53.20
44863;DHT22;30597;49.628;10.850;2023-07-31T10:59:45;24.60;53.10
44863;DHT22;30597;49.628;10.850;2023-07-31T11:02:24;24.70;53.20
44863;DHT22;30597;49.628;10.850;2023-07-31T11:05:09;24.80;53.40
44863;DHT22;30597;49.628;10.850;2023-07-31T11:07:50;24.60;53.20
44863;DHT22;30597;49.628;10.850;2023-07-31T11:10:17;24.60;53.20
44863;DHT22;30597;49.628;10.850;2023-07-31T11:12:45;24.70;53.30
44863;DHT22;30597;49.628;10.850;2023-07-31T11:15:10;24.80;53.30
44863;DHT22;30597;49.628;10.850;2023-07-31T11:17:40;24.70;53.00
44863;DHT22;30597;49.628;10.850;2023-07-31T11:20:06;24.80;53.00
44863;DHT22;30597;49.628;10.850;2023-07-31T11:22:35;24.70;53.00
44863;DHT22;30597;49.628;10.850;2023-07-31T11:25:03;24.70;53.00
44863;DHT22;30597;49.628;10.850;2023-07-31T11:27:29;24.70;52.90
44863;DHT22;30597;49.628;10.850;2023-07-31T11:30:01;24.70;52.80
44863;DHT22;30597;49.628;10.850;2023-07-31T11:32:27;24.70;52.90
44863;DHT22;30597;49.628;10.850;2023-07-31T11:34:53;24.70;52.80
44863;DHT22;30597;49.628;10.850;2023-07-31T11:37:19;24.70;52.90
44863;DHT22;30597;49.628;10.850;2023-07-31T11:39:59;24.70;52.90
44863;DHT22;30597;49.628;10.850;2023-07-31T11:42:25;24.70;52.90
44863;DHT22;30597;49.628;10.850;2023-07-31T11:44:50;24.80;52.80
44863;DHT22;30597;49.628;10.850;2023-07-31T11:47:16;24.70;52.80
44863;DHT22;30597;49.628;10.850;2023-07-31T11:49:43;24.80;52.80
44863;DHT22;30597;49.628;10.850;2023-07-31T11:52:09;24.70;52.80
44863;DHT22;30597;49.628;10.850;2023-07-31T11:54:35;24.70;52.80
44863;DHT22;30597;49.628;10.850;2023-07-31T11:57:01;24.70;52.80
44863;DHT22;30597;49.628;10.850;2023-07-31T11:59:27;24.70;52.60
44863;DHT22;30597;49.628;10.850;2023-07-31T12:01:53;24.80;52.70
44863;DHT22;30597;49.628;10.850;2023-07-31T12:04:19;24.70;52.60
44863;DHT22;30597;49.628;10.850;2023-07-31T12:06:47;24.70;52.70
44863;DHT22;30597;49.628;10.850;2023-07-31T12:09:14;24.90;52.80
44863;DHT22;30597;49.628;10.850;2023-07-31T12:11:46;24.80;52.60
44863;DHT22;30597;49.628;10.850;2023-07-31T12:14:26;24.70;52.60
44863;DHT22;30597;49.628;10.850;2023-07-31T12:16:55;24.70;52.70
44863;DHT22;30597;49.628;10.850;2023-07-31T12:19:21;24.70;52.60
44863;DHT22;30597;49.628;10.850;2023-07-31T12:21:47;24.70;52.60
44863;DHT22;30597;49.628;10.850;2023-07-31T12:24:14;24.70;52.50
44863;DHT22;30597;49.628;10.850;2023-07-31T12:26:40;24.70;52.40
44863;DHT22;30597;49.628;10.850;2023-07-31T12:29:07;24.80;52.60
44863;DHT22;30597;49.628;10.850;2023-07-31T12:31:34;24.80;52.60
44863;DHT22;30597;49.628;10.850;2023-07-31T12:33:59;24.80;52.50
44863;DHT22;30597;49.628;10.850;2023-07-31T12:36:26;24.90;52.70
44863;DHT22;30597;49.628;10.850;2023-07-31T12:38:54;24.70;52.50
44863;DHT22;30597;49.628;10.850;2023-07-31T12:41:21;24.70;52.50
44863;DHT22;30597;49.628;10.850;2023-07-31T12:43:47;24.80;52.50
44863;DHT22;30597;49.628;10.850;2023-07-31T12:46:12;24.80;52.40
44863;DHT22;30597;49.628;10.850;2023-07-31T12:48:39;24.70;52.40
44863;DHT22;30597;49.628;10.850;2023-07-31T12:51:05;24.80;52.60
44863;DHT22;30597;49.628;10.850;2023-07-31T12:53:32;24.70;52.50
44863;DHT22;30597;49.628;10.850;2023-07-31T12:55:58;24.70;52.50
44863;DHT22;30597;49.628;10.850;2023-07-31T12:58:24;24.70;52.40
44863;DHT22;30597;49.628;10.850;2023-07-31T13:00:49;24.70;52.40
44863;DHT22;30597;49.628;10.850;2023-07-31T13:03:15;24.80;52.40
44863;DHT22;30597;49.628;10.850;2023-07-31T13:05:41;24.70;52.40
44863;DHT22;30597;49.628;10.850;2023-07-31T13:08:06;24.70;52.40
44863;DHT22;30597;49.628;10.850;2023-07-31T13:10:32;24.70;52.40
44863;DHT22;30597;49.628;10.850;2023-07-31T13:12:58;24.70;52.50
44863;DHT22;30597;49.628;10.850;2023-07-31T13:15:24;24.70;52.50
44863;DHT22;30597;49.628;10.850;2023-07-31T13:17:49;24.80;52.50
44863;DHT22;30597;49.628;10.850;2023-07-31T13:20:15;24.70;52.40
44863;DHT22;30597;49.628;10.850;2023-07-31T13:22:40;24.70;52.40
44863;DHT22;30597;49.628;10.850;2023-07-31T13:25:06;24.70;52.50
44863;DHT22;30597;49.628;10.850;2023-07-31T13:27:32;24.70;52.40
44863;DHT22;30597;49.628;10.850;2023-07-31T13:29:58;24.90;52.50
44863;DHT22;30597;49.628;10.850;2023-07-31T13:32:23;24.70;52.40
44863;DHT22;30597;49.628;10.850;2023-07-31T13:34:49;24.80;52.40
44863;DHT22;30597;49.628;10.850;2023-07-31T13:37:15;24.70;52.40
44863;DHT22;30597;49.628;10.850;2023-07-31T13:39:41;24.70;52.50
44863;DHT22;30597;49.628;10.850;2023-07-31T13:42:08;24.70;52.40
44863;DHT22;30597;49.628;10.850;2023-07-31T13:44:40;24.70;52.50
44863;DHT22;30597;49.628;10.850;2023-07-31T13:47:06;24.70;52.50
44863;DHT22;30597;49.628;10.850;2023-07-31T13:49:32;24.70;52.30
44863;DHT22;30597;49.628;10.850;2023-07-31T13:51:58;24.80;52.40
44863;DHT22;30597;49.628;10.850;2023-07-31T13:54:24;24.70;52.30
44863;DHT22;30597;49.628;10.850;2023-07-31T13:56:51;24.80;52.50
44863;DHT22;30597;49.628;10.850;2023-07-31T13:59:17;24.80;52.50
44863;DHT22;30597;49.628;10.850;2023-07-31T14:01:43;24.70;52.10
44863;DHT22;30597;49.628;10.850;2023-07-31T14:04:09;24.90;52.50
44863;DHT22;30597;49.628;10.850;2023-07-31T14:06:35;24.80;52.30
44863;DHT22;30597;49.628;10.850;2023-07-31T14:09:00;24.70;52.30
44863;DHT22;30597;49.628;10.850;2023-07-31T14:11:26;24.80;52.40
44863;DHT22;30597;49.628;10.850;2023-07-31T14:13:52;24.70;52.40
44863;DHT22;30597;49.628;10.850;2023-07-31T14:16:18;24.60;52.30
44863;DHT22;30597;49.628;10.850;2023-07-31T14:18:43;24.60;52.30
44863;DHT22;30597;49.628;10.850;2023-07-31T14:21:11;24.70;52.40
44863;DHT22;30597;49.628;10.850;2023-07-31T14:23:36;24.80;52.60
44863;DHT22;30597;49.628;10.850;2023-07-31T14:26:02;24.60;52.40
44863;DHT22;30597;49.628;10.850;2023-07-31T14:28:27;24.80;52.60
44863;DHT22;30597;49.628;10.850;2023-07-31T14:30:53;24.60;52.40
44863;DHT22;30597;49.628;10.850;2023-07-31T14:33:18;24.70;52.60
44863;DHT22;30597;49.628;10.850;2023-07-31T14:35:44;24.60;52.50
44863;DHT22;30597;49.628;10.850;2023-07-31T14:38:10;24.60;52.50
44863;DHT22;30597;49.628;10.850;2023-07-31T14:40:35;24.70;52.50
44863;DHT22;30597;49.628;10.850;2023-07-31T14:43:01;24.70;52.50
44863;DHT22;30597;49.628;10.850;2023-07-31T14:45:27;24.60;52.50
44863;DHT22;30597;49.628;10.850;2023-07-31T14:47:53;24.60;52.50
44863;DHT22;30597;49.628;10.850;2023-07-31T14:50:20;24.50;52.50
44863;DHT22;30597;49.628;10.850;2023-07-31T14:52:46;24.60;52.60
44863;DHT22;30597;49.628;10.850;2023-07-31T14:55:11;24.50;52.50
44863;DHT22;30597;49.628;10.850;2023-07-31T14:57:37;24.70;52.60
44863;DHT22;30597;49.628;10.850;2023-07-31T15:00:03;24.50;52.50
44863;DHT22;30597;49.628;10.850;2023-07-31T15:02:36;24.60;52.70
44863;DHT22;30597;49.628;10.850;2023-07-31T15:05:01;24.50;52.70
44863;DHT22;30597;49.628;10.850;2023-07-31T15:07:27;24.50;52.60
44863;DHT22;30597;49.628;10.850;2023-07-31T15:09:53;24.50;52.60
44863;DHT22;30597;49.628;10.850;2023-07-31T15:12:18;24.50;52.50
44863;DHT22;30597;49.628;10.850;2023-07-31T15:14:44;24.50;52.50
44863;DHT22;30597;49.628;10.850;2023-07-31T15:17:09;24.50;52.60
44863;DHT22;30597;49.628;10.850;2023-07-31T15:19:35;24.50;52.60
44863;DHT22;30597;49.628;10.850;2023-07-31T15:22:02;24.60;52.80